Flight Track Log - Related Links

Times and Time Zones

All times are in EDT time to prevent confusion due to time zone crossing. See the FLG3323 flight status page for this flight to view local times or setup timezone preferences in your user account.

Time Position Orientation Groundspeed Altitude Reporting Facility
EDT Latitude Longitude Course Direction KTS MPH feet Rate Location/Type
Fri 04:49:25 PM 42.3667 -70.9167 71° East 179 206 2,400  Level KA90
Fri 04:50:40 PM 42.3869 -70.8378 71° East 227 261 4,700 1,778 Climbing Boston Center
Fri 04:51:40 PM 42.3731 -70.7397 101° East 235 270 6,400 1,950 Climbing Boston Center
Fri 04:52:40 PM 42.2978 -70.7250 172° South 199 229 8,600 2,350 Climbing Boston Center
Fri 04:53:40 PM 42.2383 -70.7828 216° Southwest 201 231 11,100 1,850 Climbing Boston Center
Fri 04:54:40 PM 42.2083 -70.8733 246° West 237 273 12,300 1,700 Climbing Boston Center
Fri 04:55:40 PM 42.1975 -71.0025 264° West 277 319 14,500 1,950 Climbing Boston Center
Fri 04:56:40 PM 42.2008 -71.1144 272° West 316 364 16,200 1,700 Climbing Boston Center
Fri 04:57:40 PM 42.2025 -71.2544 271° West 332 382 17,900 1,450 Climbing Boston Center
Fri 04:58:40 PM 42.2122 -71.3917 276° West 358 412 19,100 1,500 Climbing Boston Center
Fri 04:59:40 PM 42.2175 -71.5233 273° West 363 418 20,900 1,600 Climbing Boston Center
Fri 05:00:40 PM 42.2058 -71.6442 263° West 363 418 22,300 1,300 Climbing Boston Center
Fri 05:01:40 PM 42.1817 -71.7789 256° West 370 426 23,500 1,300 Climbing Boston Center
Fri 05:02:40 PM 42.1575 -71.9136 256° West 370 426 24,900 1,136 Climbing Boston Center
Fri 05:03:52 PM 42.1350 -72.0536 258° West 375 432 26,000 1,045 Climbing Boston Center
Fri 05:04:52 PM 42.1064 -72.2275 258° West 380 437 27,200 900 Climbing Boston Center
Fri 05:05:52 PM 42.0794 -72.3731 256° West 393 452 27,800 600 Climbing Boston Center
Fri 05:06:52 PM 42.0522 -72.5211 256° West 404 465 28,400 750 Climbing Boston Center
Fri 05:07:52 PM 42.0250 -72.6833 257° West 409 471 29,300 900 Climbing Boston Center
Fri 05:08:52 PM 41.9850 -72.8283 250° West 414 476 30,200 1,100 Climbing Boston Center
Fri 05:09:52 PM 41.9117 -72.9533 232° Southwest 414 476 31,500 900 Climbing Boston Center
Fri 05:10:52 PM 41.8442 -73.0697 232° Southwest 437 503 32,000 250 Climbing Boston Center
Fri 05:11:52 PM 41.7725 -73.1972 233° Southwest 437 503 32,000  Level Boston Center
Fri 05:12:52 PM 41.7114 -73.2994 231° Southwest 437 503 32,000  Level Boston Center
Fri 05:14:52 PM 41.5403 -73.5928 232° Southwest 439 505 32,000  Level New York Center
Fri 05:15:52 PM 41.4619 -73.7250 232° Southwest 444 511 32,000  Level New York Center
Fri 05:16:53 PM 41.3878 -73.8544 233° Southwest 444 511 32,000  Level New York Center
Fri 05:17:54 PM 41.3094 -73.9833 231° Southwest 451 519 32,000  Level New York Center
Fri 05:18:52 PM 41.2331 -74.1122 232° Southwest 451 519 32,000  Level New York Center
Fri 05:19:53 PM 41.1611 -74.2269 230° Southwest 457 526 32,000 248 Level New York Center
Fri 05:20:53 PM 41.0822 -74.3522 230° Southwest 457 526 32,500 541 Climbing New York Center
Fri 05:21:55 PM 41.0075 -74.4803 232° Southwest 452 520 33,100 605 Climbing New York Center
Fri 05:22:52 PM 40.9306 -74.6053 231° Southwest 452 520 33,700 458 Climbing New York Center
Fri 05:23:53 PM 40.8558 -74.7272 231° Southwest 452 520 34,000 149 Climbing New York Center
Fri 05:24:53 PM 40.7847 -74.8572 234° Southwest 452 520 34,000  Level New York Center
Fri 05:25:54 PM 40.7258 -74.9881 239° Southwest 435 501 34,000  Level New York Center
Fri 05:26:54 PM 40.6669 -75.1211 240° Southwest 421 484 34,000  Level New York Center
Fri 05:27:52 PM 40.6056 -75.2539 239° Southwest 421 484 34,000 -50 Level New York Center
Fri 05:28:54 PM 40.5442 -75.3892 239° Southwest 421 484 33,900  Descending New York Center
Fri 05:29:53 PM 40.4825 -75.5242 239° Southwest 426 490 34,000 51 Climbing New York Center
Fri 05:30:52 PM 40.4208 -75.6564 239° Southwest 426 490 34,000  Level New York Center
Fri 05:31:53 PM 40.3614 -75.7831 238° Southwest 426 490 34,000  Level New York Center
Fri 05:32:53 PM 40.2972 -75.9169 238° Southwest 426 490 34,000  Level New York Center
Fri 05:33:53 PM 40.2353 -76.0458 238° Southwest 431 496 34,000  Level New York Center
Fri 05:34:52 PM 40.1664 -76.1872 238° Southwest 426 490 34,000  Level New York Center
Fri 05:35:52 PM 40.1150 -76.3028 240° Southwest 421 484 34,000  Level New York Center
Fri 05:36:53 PM 40.0569 -76.4283 239° Southwest 416 479 34,000  Level New York Center
Fri 05:37:53 PM 39.9989 -76.5508 238° Southwest 410 472 34,000  Level New York Center
Fri 05:38:54 PM 39.9408 -76.6733 238° Southwest 410 472 34,000  Level New York Center
Fri 05:39:54 PM 39.8867 -76.7961 240° Southwest 410 472 34,000  Level New York Center
Fri 05:40:52 PM 39.8281 -76.9181 238° Southwest 404 465 34,000  Level New York Center
Fri 05:41:29 PM 39.7889 -76.9931 236° Southwest 407 468 34,000  Level Washington Center
Fri 05:42:30 PM 39.7333 -77.1133 239° Southwest 402 463 34,000  Level Washington Center
Fri 05:43:31 PM 39.6775 -77.2361 239° Southwest 402 463 34,000  Level Washington Center
Fri 05:44:29 PM 39.6217 -77.3561 239° Southwest 397 457 34,000  Level Washington Center
Fri 05:45:29 PM 39.5614 -77.4783 237° Southwest 397 457 34,000  Level Washington Center
Fri 05:46:30 PM 39.5053 -77.5981 239° Southwest 397 457 34,000  Level Washington Center
Fri 05:47:31 PM 39.4492 -77.7175 239° Southwest 397 457 34,000  Level Washington Center
Fri 05:48:29 PM 39.3947 -77.8339 239° Southwest 397 457 34,000  Level Washington Center
Fri 05:49:29 PM 39.3447 -77.9533 242° Southwest 392 451 34,000  Level Washington Center
Fri 05:50:30 PM 39.2986 -78.0697 243° Southwest 381 438 34,000  Level Washington Center
Fri 05:51:31 PM 39.2503 -78.1886 242° Southwest 381 438 34,000  Level Washington Center
Fri 05:52:29 PM 39.2036 -78.3131 244° Southwest 381 438 34,000  Level Washington Center
Fri 05:53:29 PM 39.1531 -78.4314 241° Southwest 381 438 34,000  Level Washington Center
Fri 05:54:30 PM 39.1064 -78.5500 243° Southwest 381 438 34,000  Level Washington Center
Fri 05:55:31 PM 39.0594 -78.6739 244° Southwest 381 438 34,000  Level Washington Center
Fri 05:56:31 PM 39.0083 -78.7919 241° Southwest 381 438 34,000  Level Washington Center
Fri 05:57:29 PM 38.9614 -78.9100 243° Southwest 381 438 34,000  Level Washington Center
Fri 05:58:29 PM 38.9100 -79.0303 241° Southwest 381 438 34,000  Level Washington Center
Fri 05:59:30 PM 38.8628 -79.1508 243° Southwest 381 438 34,000  Level Washington Center
Fri 06:00:29 PM 38.8281 -79.2717 250° West 376 433 34,000  Level Washington Center
Fri 06:01:30 PM 38.8075 -79.3958 258° West 362 417 34,000  Level Washington Center
Fri 06:02:30 PM 38.7867 -79.5175 258° West 356 410 34,000  Level Washington Center
Fri 06:03:31 PM 38.7617 -79.6439 256° West 361 415 34,000  Level Washington Center
Fri 06:04:31 PM 38.7406 -79.7758 258° West 356 410 34,000  Level Washington Center
Fri 06:06:21 PM 38.6989 -79.9794 255° West 351 404 34,000  Level Indianapolis Center
Fri 06:07:23 PM 38.6758 -80.1006 256° West 352 405 34,000  Level Indianapolis Center
Fri 06:08:25 PM 38.6494 -80.2442 257° West 346 398 34,000  Level Indianapolis Center
Fri 06:09:27 PM 38.6261 -80.3656 256° West 349 402 34,000  Level Indianapolis Center
Fri 06:10:29 PM 38.6036 -80.4864 257° West 349 402 34,000  Level Indianapolis Center
Fri 06:11:31 PM 38.5797 -80.6078 256° West 351 404 34,000  Level Indianapolis Center
Fri 06:12:33 PM 38.5572 -80.7297 257° West 351 404 34,000  Level Indianapolis Center
Fri 06:13:35 PM 38.5328 -80.8533 256° West 357 411 34,000  Level Indianapolis Center
Fri 06:14:37 PM 38.5086 -80.9758 256° West 355 409 34,000  Level Indianapolis Center
Fri 06:15:39 PM 38.4794 -81.1236 256° West 356 410 34,000  Level Indianapolis Center
Fri 06:16:41 PM 38.4544 -81.2475 256° West 358 412 34,000  Level Indianapolis Center
Fri 06:17:43 PM 38.4297 -81.3733 256° West 360 414 34,000  Level Indianapolis Center
Fri 06:18:45 PM 38.4053 -81.4992 256° West 361 415 34,000  Level Indianapolis Center
Fri 06:19:47 PM 38.3794 -81.6244 255° West 364 419 34,000  Level Indianapolis Center
Fri 06:20:49 PM 38.3544 -81.7497 256° West 363 418 34,000  Level Indianapolis Center
Fri 06:21:51 PM 38.3211 -81.8731 251° West 367 422 34,000  Level Indianapolis Center
Fri 06:22:53 PM 38.2875 -81.9958 251° West 366 421 34,000  Level Indianapolis Center
Fri 06:23:56 PM 38.2456 -82.1444 250° West 372 428 34,000  Level Indianapolis Center
Fri 06:24:58 PM 38.2100 -82.2675 250° West 372 428 34,000  Level Indianapolis Center
Fri 06:26:00 PM 38.1742 -82.3911 250° West 371 427 34,000  Level Indianapolis Center
Fri 06:27:02 PM 38.1419 -82.5075 251° West 374 430 34,000  Level Indianapolis Center
Fri 06:28:04 PM 38.1008 -82.6514 250° West 372 428 34,000  Level Indianapolis Center
Fri 06:29:06 PM 38.0650 -82.7742 250° West 372 428 34,000  Level Indianapolis Center
Fri 06:30:08 PM 38.0297 -82.8986 250° West 374 430 34,000  Level Indianapolis Center
Fri 06:31:10 PM 37.9936 -83.0217 250° West 373 429 34,000  Level Indianapolis Center
Fri 06:32:12 PM 37.9575 -83.1456 250° West 375 432 34,000  Level Indianapolis Center
Fri 06:33:14 PM 37.9156 -83.2892 250° West 376 433 34,000  Level Indianapolis Center
Fri 06:34:16 PM 37.8789 -83.4111 249° West 374 430 34,000  Level Indianapolis Center
Fri 06:35:18 PM 37.8425 -83.5347 250° West 374 430 34,000  Level Indianapolis Center
Fri 06:36:20 PM 37.8061 -83.6578 250° West 375 432 34,000  Level Indianapolis Center
Fri 06:37:22 PM 37.7683 -83.7806 249° West 375 432 34,000  Level Indianapolis Center
Fri 06:38:24 PM 37.7244 -83.9253 249° West 377 434 34,000  Level Indianapolis Center
Fri 06:39:26 PM 37.6867 -84.0478 249° West 375 432 34,000  Level Indianapolis Center
Fri 06:40:28 PM 37.6492 -84.1731 249° West 379 436 34,000  Level Indianapolis Center
Fri 06:41:30 PM 37.6100 -84.2967 248° West 380 437 34,000  Level Indianapolis Center
Fri 06:42:32 PM 37.5725 -84.4225 249° West 383 441 34,000  Level Indianapolis Center
Fri 06:44:36 PM 37.4889 -84.6925 249° West 384 442 34,000  Level Indianapolis Center
Fri 06:45:38 PM 37.4500 -84.8175 249° West 384 442 34,000  Level Indianapolis Center
Fri 06:46:40 PM 37.4106 -84.9411 248° West 382 440 34,000  Level Indianapolis Center
Fri 06:47:42 PM 37.3725 -85.0672 249° West 385 443 34,000  Level Indianapolis Center
Fri 06:48:44 PM 37.3264 -85.2122 248° West 384 442 34,000  Level Indianapolis Center
Fri 06:49:46 PM 37.2856 -85.3364 248° West 385 443 34,000  Level Indianapolis Center
Fri 06:50:48 PM 37.2467 -85.4619 249° West 386 444 34,000  Level Indianapolis Center
Fri 06:51:50 PM 37.2097 -85.5778 248° West 388 447 34,000  Level Indianapolis Center
Fri 06:52:21 PM 37.1847 -85.6628 250° West 399 459 34,000  Level Memphis Center
Fri 06:53:21 PM 37.1414 -85.7875 246° West 399 459 34,000  Level Memphis Center
Fri 06:54:21 PM 37.1022 -85.9147 249° West 393 452 34,000  Level Memphis Center
Fri 06:55:21 PM 37.0647 -86.0286 248° West 399 459 34,000  Level Memphis Center
Fri 06:56:21 PM 37.0233 -86.1556 248° West 391 450 34,000  Level Memphis Center
Fri 06:57:21 PM 36.9817 -86.2822 248° West 396 456 34,000  Level Memphis Center
Fri 06:58:21 PM 36.9397 -86.4089 248° West 396 456 34,000  Level Memphis Center
Fri 06:59:21 PM 36.8894 -86.5308 243° Southwest 401 461 34,000  Level Memphis Center
Fri 07:00:22 PM 36.8369 -86.6525 242° Southwest 406 467 34,000  Level Memphis Center
Fri 07:01:21 PM 36.7822 -86.7742 241° Southwest 406 467 34,000  Level Memphis Center
Fri 07:02:21 PM 36.7294 -86.8956 242° Southwest 401 461 34,000  Level Memphis Center
Fri 07:03:21 PM 36.6764 -87.0169 241° Southwest 401 461 34,000  Level Memphis Center
Fri 07:04:21 PM 36.6214 -87.1408 241° Southwest 401 461 34,000  Level Memphis Center
Fri 07:05:21 PM 36.5661 -87.2644 241° Southwest 406 467 34,000  Level Memphis Center
Fri 07:06:21 PM 36.5106 -87.3853 240° Southwest 406 467 34,000  Level Memphis Center
Fri 07:07:21 PM 36.4514 -87.5192 241° Southwest 406 467 34,000  Level Memphis Center
Fri 07:08:21 PM 36.3936 -87.6422 240° Southwest 412 474 34,000 -300 Level Memphis Center
Fri 07:09:21 PM 36.3400 -87.7650 242° Southwest 412 474 33,400 -1,300 Descending Memphis Center
Fri 07:10:21 PM 36.2842 -87.8881 241° Southwest 412 474 31,400 -2,000 Descending Memphis Center
Fri 07:11:21 PM 36.2300 -88.0053 240° Southwest 407 468 29,400 -2,000 Descending Memphis Center
Fri 07:12:21 PM 36.1781 -88.1225 241° Southwest 407 468 27,400 -1,900 Descending Memphis Center
Fri 07:13:21 PM 36.1297 -88.2214 239° Southwest 399 459 25,600 -1,700 Descending Memphis Center
Fri 07:14:21 PM 36.0753 -88.3333 239° Southwest 388 447 24,000 -800 Descending Memphis Center
Fri 07:15:21 PM 36.0017 -88.4250 225° Southwest 383 441 24,000  Level Memphis Center
Fri 07:16:21 PM 35.9217 -88.5167 223° Southwest 383 441 24,000  Level Memphis Center
Fri 07:17:21 PM 35.8417 -88.6028 221° Southwest 383 441 24,000 -150 Level Memphis Center
Fri 07:18:21 PM 35.7572 -88.6789 216° Southwest 388 447 23,700 -700 Descending Memphis Center
Fri 07:19:21 PM 35.6747 -88.7547 217° Southwest 388 447 22,600 -1,100 Descending Memphis Center
Fri 07:20:21 PM 35.5964 -88.8278 217° Southwest 364 419 21,500 -1,150 Descending Memphis Center
Fri 07:21:21 PM 35.5222 -88.8981 218° Southwest 348 400 20,300 -1,100 Descending Memphis Center
Fri 07:22:21 PM 35.4439 -88.9656 215° Southwest 343 395 19,300 -1,100 Descending Memphis Center
Fri 07:23:21 PM 35.3486 -89.0258 207° Southwest 343 395 18,100 -1,150 Descending Memphis Center
Fri 07:24:21 PM 35.2592 -89.0703 202° Southwest 348 400 17,000 -1,100 Descending Memphis Center
Fri 07:25:21 PM 35.1828 -89.1300 213° Southwest 336 387 15,900 -1,550 Descending Memphis Center
Fri 07:26:21 PM 35.1144 -89.1994 220° Southwest 336 387 13,900 -1,950 Descending Memphis Center
Fri 07:27:21 PM 35.0567 -89.2739 227° Southwest 318 366 12,000 -1,600 Descending Memphis Center
Fri 07:28:21 PM 35.0158 -89.3531 238° Southwest 298 343 10,700 -1,450 Descending Memphis Center
Fri 07:29:21 PM 34.9808 -89.4269 240° Southwest 266 306 9,100 -1,600 Descending Memphis Center
Fri 07:30:21 PM 34.9500 -89.4983 242° Southwest 248 285 7,500 -1,700 Descending Memphis Center
Fri 07:31:21 PM 34.9233 -89.5644 244° Southwest 226 260 5,700 -1,650 Descending Memphis Center
Fri 07:32:21 PM 34.9008 -89.6278 247° West 226 260 4,200 -1,350 Descending Memphis Center
Fri 07:33:21 PM 34.8761 -89.7039 248° West 240 276 3,000 -700 Descending Memphis Center
Fri 07:34:21 PM 34.8789 -89.8028 272° West 262 302 2,800 -500 Descending Memphis Center
Fri 07:35:21 PM 34.8792 -89.8889 270° West 262 302 2,000 -400 Descending Memphis Center
Fri 07:36:21 PM 34.9067 -89.9519 298° West 232 267 2,000 -92 Level Memphis Center
Fri 07:37:32 PM 34.9500 -89.9667 344° North 147 169 1,800 -474 Descending KMEM
Fri 07:38:53 PM 35.0167 -89.9667 360° North 140 161 800 -741 Descending KMEM

Login

Don't have an account? Register now (free) for customized features, flight alerts, and more!